ADDS METAR Data INFO
IDs: Format: Raw Decoded Include TAF

Data at: 1926 UTC 23 Apr 2018

KFGX 231915Z AUTO 13010G18KT 7SM -RA SCT023 SCT055 OVC065 13/11 A3015 RMK AO2 T01250109
KFGX 231855Z AUTO 12013KT 10SM RA SCT023 SCT047 OVC065 13/11 A3015 RMK AO2 T01280113
KFGX 231835Z AUTO 12011G18KT 10SM -RA SCT019 BKN026 OVC055 13/12 A3014 RMK AO2 T01280115
KFGX 231815Z AUTO 11011G17KT 10SM RA SCT013 BKN021 OVC065 13/12 A3015 RMK AO2 T01280118
KFGX 231755Z AUTO 13013G17KT 5SM RA SCT013 BKN019 OVC050 13/12 A3016 RMK AO2 T01300121 10135 20117
KFGX 231735Z AUTO 14009KT 5SM RA SCT012 BKN017 OVC070 13/12 A3017 RMK AO2 T01300122
KFGX 231715Z AUTO 11008KT 7SM -RA SCT022 BKN065 OVC080 13/12 A3015 RMK AO2 T01270123
KFGX 231655Z AUTO 10007KT 7SM -RA BKN065 OVC080 12/12 A3015 RMK AO2 T01230120
KFGX 231635Z AUTO 10007KT 7SM -RA SCT050 SCT065 OVC075 12/12 A3015 RMK AO2 T01200116
KFGX 231615Z AUTO 09007KT 7SM -RA BKN050 OVC065 12/11 A3015 RMK AO2 T01200112
KFGX 231555Z AUTO 09006KT 7SM -RA OVC047 12/11 A3016 RMK AO2 T01200110
KFGX 231535Z AUTO 11006KT 5SM RA OVC047 12/11 A3016 RMK AO2 T01180108
KFGX 231515Z AUTO 14004KT 5SM RA OVC047 12/11 A3017 RMK AO2 T01220106
KFGX 231455Z AUTO 13004KT 10SM RA OVC050 13/10 A3015 RMK AO2 T01250097
KFGX 231435Z AUTO 11004KT 10SM -RA OVC050 13/10 A3015 RMK AO2 T01260095
KFGX 231415Z AUTO 13003KT 10SM DZ OVC050 13/09 A3014 RMK AO2 T01300089
KFGX 231355Z AUTO 10006KT 10SM DZ BKN050 OVC065 13/08 A3014 RMK AO2 T01320084
KFGX 231335Z AUTO 10007KT 10SM -DZ SCT055 OVC065 13/08 A3013 RMK AO2 T01330084
KFGX 231315Z AUTO 10005KT 10SM OVC065 13/08 A3013 RMK AO2 T01330084
KFGX 231255Z AUTO 10009KT 10SM BKN065 OVC080 13/08 A3013 RMK AO2 T01300082
KFGX 231235Z AUTO 11008KT 10SM DZ BKN065 OVC080 13/07 A3014 RMK AO2 T01330070
KFGX 231215Z AUTO 11006KT 10SM BKN065 OVC080 13/06 A3013 RMK AO2 T01310062
KFGX 231155Z AUTO 10006KT 10SM BKN080 OVC100 13/06 A3012 RMK AO2 T01300060 10130 20109
KFGX 231135Z AUTO 10005KT 10SM BKN080 13/06 A3011 RMK AO2 T01250057
KFGX 231115Z AUTO 09007KT 10SM BKN070 OVC110 12/06 A3011 RMK AO2 T01210055
KFGX 231055Z AUTO 10005KT 10SM BKN110 12/06 A3012 RMK AO2 T01160056
KFGX 231035Z AUTO 09006KT 10SM SCT110 12/05 A3010 RMK AO2 T01200050
KFGX 231015Z AUTO 10006KT 10SM BKN110 12/05 A3010 RMK AO2 T01190048
KFGX 230955Z AUTO 10006KT 10SM BKN120 12/04 A3010 RMK AO2 T01200043
KFGX 230935Z AUTO 09004KT 10SM SCT110 12/04 A3009 RMK AO2 T01200036
KFGX 230915Z AUTO 10006KT 10SM CLR 12/03 A3009 RMK AO2 T01160032
KFGX 230855Z AUTO 09007KT 10SM CLR 12/03 A3009 RMK AO2 T01160025
KFGX 230835Z AUTO 10006KT 10SM CLR 12/02 A3010 RMK AO2 T01160018
KFGX 230815Z AUTO 09006KT 10SM CLR 12/01 A3010 RMK AO2 T01150010
KFGX 230755Z AUTO 10005KT 10SM CLR 12/00 A3010 RMK AO2 T01150001
KFGX 230735Z AUTO 08007KT 10SM CLR 12/00 A3010 RMK AO2 T01171005
KFGX 230715Z AUTO 09006KT 10SM CLR 12/00 A3010 RMK AO2 T01151005
KFGX 230655Z AUTO 10006KT 10SM CLR 11/00 A3010 RMK AO2 T01091003
KFGX 230635Z AUTO 10005KT 10SM CLR 11/00 A3011 RMK AO2 T01131004
KFGX 230615Z AUTO 10007KT 10SM CLR 12/M01 A3012 RMK AO2 T01231011
KFGX 230555Z AUTO 10007KT 10SM CLR 12/M01 A3012 RMK AO2 T01241013 10156 20122 401910076
KFGX 230535Z AUTO 09007KT 10SM SCT120 12/M01 A3012 RMK AO2 T01231013
KFGX 230515Z AUTO 09007KT 10SM SCT120 13/M01 A3013 RMK AO2 T01301012
KFGX 230455Z AUTO 09008KT 10SM CLR 13/M01 A3013 RMK AO2 T01311012
KFGX 230435Z AUTO 09010KT 10SM CLR 13/M01 A3013 RMK AO2 T01301012
KFGX 230415Z AUTO 08009KT 10SM CLR 13/M01 A3014 RMK AO2 T01261009
KFGX 230355Z AUTO 09008KT 10SM CLR 13/00 A3014 RMK AO2 T01281005
KFGX 230335Z AUTO 08010KT 10SM CLR 12/00 A3015 RMK AO2 T01241001
KFGX 230315Z AUTO 09009KT 10SM CLR 13/00 A3015 RMK AO2 T01260000
KFGX 230255Z AUTO 08007KT 10SM CLR 13/00 A3015 RMK AO2 T01341005
KFGX 230235Z AUTO 08008KT 10SM CLR 13/00 A3016 RMK AO2 T01341003
KFGX 230215Z AUTO 08009KT 10SM CLR 14/00 A3015 RMK AO2 T01361005
KFGX 230155Z AUTO 08009KT 10SM CLR 14/M01 A3016 RMK AO2 T01361007
KFGX 230135Z AUTO 08008KT 10SM CLR 14/M01 A3016 RMK AO2 T01381010
KFGX 230115Z AUTO 08007KT 10SM CLR 14/M01 A3016 RMK AO2 T01381010
KFGX 230055Z AUTO 07008KT 10SM CLR 15/M02 A3017 RMK AO2 T01451020
KFGX 230035Z AUTO 07008KT 10SM CLR 15/M02 A3017 RMK AO2 T01491021
KFGX 230015Z AUTO 08007KT 10SM CLR 15/M01 A3016 RMK AO2 T01511015
KFGX 222355Z AUTO 07007KT 10SM CLR 16/M01 A3016 RMK AO2 T01571010 10191 20157
KFGX 222335Z AUTO 07008KT 10SM CLR 16/M02 A3016 RMK AO2 T01621018
KFGX 222315Z AUTO 07008KT 10SM CLR 17/M02 A3017 RMK AO2 T01661021
KFGX 222255Z AUTO 08009KT 10SM CLR 17/00 A3017 RMK AO2 T01691005
KFGX 222235Z AUTO 08010KT 10SM CLR 18/00 A3017 RMK AO2 T01821003
KFGX 222215Z AUTO 08010KT 10SM CLR 18/M01 A3018 RMK AO2 T01791007
KFGX 222155Z AUTO 07010KT 10SM CLR 18/M01 A3018 RMK AO2 T01791008
KFGX 222135Z AUTO 05008KT 10SM CLR 18/M01 A3019 RMK AO2 T01801012
KFGX 222055Z AUTO 07007KT 10SM CLR 18/00 A3020 RMK AO2 T01830003
KFGX 222035Z AUTO 07008KT 10SM CLR 19/01 A3020 RMK AO2 T01870006
KFGX 221955Z AUTO 05009KT 10SM CLR 18/M01 A3021 RMK AO2 T01821006
KFGX 221915Z AUTO 04009KT 10SM CLR 19/00 A3023 RMK AO2 T01871001
KFGX 221855Z AUTO 06008KT 10SM CLR 19/00 A3023 RMK AO2 T01890002
KFGX 221835Z AUTO 10004KT 10SM CLR 19/00 A3023 RMK AO2 T01910004
KFGX 221815Z AUTO 09006KT 10SM CLR 19/00 A3024 RMK AO2 T01880000
KFGX 221755Z AUTO 06005KT 10SM CLR 19/00 A3024 RMK AO2 T01880000 10190 20085
KFGX 221735Z AUTO 09007KT 10SM CLR 18/01 A3025 RMK AO2 T01820008
KFGX 221715Z AUTO 08007KT 10SM CLR 17/02 A3025 RMK AO2 T01740015
KFGX 221655Z AUTO 09006KT 10SM CLR 17/01 A3026 RMK AO2 T01700008
KFGX 221635Z AUTO 10007KT 10SM CLR 17/01 A3027 RMK AO2 T01710008
KFGX 221555Z AUTO 08007KT 10SM CLR 15/01 A3028 RMK AO2 T01520007
KFGX 221535Z AUTO 10007KT 10SM CLR 14/00 A3028 RMK AO2 T01440002
KFGX 221515Z AUTO 08006KT 10SM CLR 13/00 A3028 RMK AO2 T01291002
KFGX 221455Z AUTO 07007KT 10SM CLR 13/00 A3029 RMK AO2 T01251002
KFGX 221435Z AUTO 08006KT 10SM CLR 12/M01 A3029 RMK AO2 T01201006
KFGX 221415Z AUTO 08007KT 10SM SCT110 12/M01 A3029 RMK AO2 T01161009
KFGX 221355Z AUTO 03003KT 10SM SCT110 11/M01 A3030 RMK AO2 T01091011
KFGX 221335Z AUTO 07006KT 10SM CLR 10/00 A3028 RMK AO2 T01021004
KFGX 221315Z AUTO 09004KT 10SM CLR 10/00 A3028 RMK AO2 T01001001
KFGX 221255Z AUTO 06005KT 10SM CLR 10/M01 A3028 RMK AO2 T00981008
KFGX 221235Z AUTO 06004KT 10SM CLR 09/00 A3030 RMK AO2 T00911004
KFGX 221215Z AUTO 07007KT 10SM BKN110 09/M02 A3030 RMK AO2 T00871017
KFGX 221155Z AUTO 06006KT 10SM OVC110 09/M02 A3029 RMK AO2 T00861020 10097 20076
KFGX 221135Z AUTO 09004KT 10SM BKN110 09/M02 A3029 RMK AO2 T00851021
KFGX 221115Z AUTO 06004KT 10SM CLR 09/M03 A3030 RMK AO2 T00871033
KFGX 221055Z AUTO 06005KT 10SM CLR 09/M03 A3029 RMK AO2 T00851030
KFGX 221035Z AUTO 07006KT 10SM CLR 09/M03 A3028 RMK AO2 T00851029
KFGX 221015Z AUTO 07007KT 10SM CLR 08/M03 A3027 RMK AO2 T00831027
KFGX 220955Z AUTO 09005KT 10SM CLR 08/M02 A3027 RMK AO2 T00831024
KFGX 220935Z AUTO 08004KT 10SM CLR 09/M03 A3027 RMK AO2 T00881029
KFGX 220915Z AUTO 08004KT 10SM CLR 09/M02 A3027 RMK AO2 T00861023
KFGX 220855Z AUTO 07007KT 10SM CLR 09/M03 A3027 RMK AO2 T00901029
KFGX 220835Z AUTO 07007KT 10SM CLR 09/M02 A3027 RMK AO2 T00861025
KFGX 220815Z AUTO 07006KT 10SM CLR 09/M02 A3028 RMK AO2 T00851022
KFGX 220755Z AUTO 06007KT 10SM CLR 09/M03 A3028 RMK AO2 T00861026
KFGX 220735Z AUTO 06005KT 10SM CLR 09/M03 A3029 RMK AO2 T00901032